Time;durP1;ratioP1;P1;durP2;ratioP2;P2;SDS_P1;SDS_P2;PMS_P1;PMS_P2;Temp;Humidity;BMP_temperature;BMP_pressure;BME280_temperature;BME280_humidity;BME280_pressure;Samples;Min_cycle;Max_cycle;Signal;HPM_P1;HPM_P2
2023/01/17 00:01:11;;;;;;;0.38;0.38;;;;;;;2.76;85.20;97815.09;5128366;28;20110;-80
2023/01/17 00:12:08;;;;;;;0.68;0.68;;;;;;;2.75;87.14;97828.09;5135466;28;20049;-84
2023/01/17 00:14:39;;;;;;;0.30;0.30;;;;;;;2.77;87.59;97836.66;5116865;28;20647;-81
2023/01/17 00:17:09;;;;;;;0.30;0.30;;;;;;;2.83;87.99;97831.19;5130826;28;20129;-80
2023/01/17 01:34:09;;;;;;;0.20;0.20;;;;;;;2.70;86.82;97955.16;5134333;28;20493;-79
2023/01/17 01:36:40;;;;;;;0.30;0.30;;;;;;;2.77;86.33;97960.94;5119383;28;20042;-81
2023/01/17 01:39:10;;;;;;;0.28;0.28;;;;;;;2.64;86.31;97965.75;5110423;28;20043;-81
2023/01/17 01:41:41;;;;;;;0.30;0.30;;;;;;;2.67;85.94;97982.00;5138039;28;20043;-81
2023/01/17 01:44:50;;;;;;;3.03;1.27;;;;;;;2.64;85.29;97978.69;5111856;28;20031;-81
2023/01/17 01:47:20;;;;;;;0.73;0.73;;;;;;;2.72;85.26;97979.25;5106652;28;20035;-80
2023/01/17 01:49:51;;;;;;;0.50;0.50;;;;;;;2.67;84.45;97991.53;5114463;28;20030;-81
2023/01/17 01:52:24;;;;;;;0.35;0.35;;;;;;;2.71;84.97;97992.25;5101198;28;20074;-83
2023/01/17 01:55:03;;;;;;;0.32;0.32;;;;;;;2.75;84.78;97986.03;5123258;28;20034;-82
2023/01/17 01:57:39;;;;;;;0.32;0.32;;;;;;;2.70;84.28;97998.34;5116991;28;20039;-82
2023/01/17 02:00:24;;;;;;;0.30;0.30;;;;;;;2.68;84.57;97995.81;5137692;28;20031;-80
2023/01/17 02:02:58;;;;;;;0.30;0.30;;;;;;;2.63;84.95;98005.47;5137845;28;20058;-82
2023/01/17 02:05:30;;;;;;;0.30;0.30;;;;;;;2.61;84.67;98007.28;5119560;28;20035;-81
2023/01/17 02:08:09;;;;;;;0.45;0.45;;;;;;;2.66;84.28;98015.72;5139862;28;20057;-82
2023/01/17 02:10:40;;;;;;;0.50;0.50;;;;;;;2.68;83.73;98006.16;5130002;28;20045;-81
2023/01/17 02:13:14;;;;;;;0.40;0.40;;;;;;;2.61;83.88;98013.31;5111858;28;20029;-82
2023/01/17 02:16:07;;;;;;;0.30;0.30;;;;;;;2.66;83.90;98026.91;5123763;28;20043;-82
2023/01/17 02:18:37;;;;;;;0.40;0.40;;;;;;;2.70;84.57;98019.88;5125266;28;20066;-82
2023/01/17 02:21:30;;;;;;;0.30;0.30;;;;;;;2.62;83.98;98025.38;5114159;28;20070;-81
2023/01/17 02:24:20;;;;;;;0.40;0.40;;;;;;;2.61;84.23;98033.16;5123924;28;20086;-82
2023/01/17 02:27:03;;;;;;;0.90;0.90;;;;;;;2.62;83.55;98052.97;5119664;28;20643;-82
2023/01/17 02:29:39;;;;;;;0.30;0.30;;;;;;;2.49;83.86;98050.88;5137189;28;20105;-80
2023/01/17 02:32:24;;;;;;;0.50;0.50;;;;;;;2.57;83.85;98047.16;5105645;28;20117;-82
2023/01/17 02:35:38;;;;;;;0.40;0.40;;;;;;;2.57;83.99;98058.31;5116077;28;20031;-83
2023/01/17 02:38:08;;;;;;;0.30;0.30;;;;;;;2.68;84.09;98065.72;5104806;28;20039;-82
2023/01/17 02:41:08;;;;;;;0.68;0.68;;;;;;;2.50;84.60;98052.56;5110315;28;20780;-82
2023/01/17 02:43:40;;;;;;;0.30;0.30;;;;;;;2.45;84.69;98062.22;5125128;28;20126;-82
2023/01/17 02:46:10;;;;;;;0.30;0.30;;;;;;;2.52;84.79;98055.91;5099400;29;20036;-83
2023/01/17 02:48:42;;;;;;;0.30;0.30;;;;;;;2.49;84.68;98056.03;5116484;28;20699;-81
2023/01/17 02:51:50;;;;;;;0.30;0.30;;;;;;;2.46;84.95;98058.72;5095270;29;20528;-81
2023/01/17 02:54:23;;;;;;;0.30;0.30;;;;;;;2.38;84.68;98058.16;5111238;29;20175;-80
2023/01/17 02:56:57;;;;;;;1.08;0.82;;;;;;;2.45;84.65;98061.38;5111925;28;20044;-81
2023/01/17 02:59:43;;;;;;;0.40;0.40;;;;;;;2.44;84.81;98055.34;5108301;29;20426;-81
2023/01/17 03:02:38;;;;;;;0.30;0.30;;;;;;;2.36;84.96;98059.97;5115741;28;20126;-82
2023/01/17 03:05:15;;;;;;;0.30;0.30;;;;;;;2.42;84.33;98070.13;5108655;29;20046;-82
2023/01/17 03:07:47;;;;;;;0.30;0.30;;;;;;;2.48;83.73;98077.66;5118470;28;20051;-82
2023/01/17 03:10:19;;;;;;;0.30;0.30;;;;;;;2.42;83.55;98083.06;5105556;29;20016;-83
2023/01/17 03:12:56;;;;;;;0.30;0.30;;;;;;;2.47;83.50;98093.25;5111709;29;20047;-82
2023/01/17 03:15:27;;;;;;;0.30;0.30;;;;;;;2.35;84.09;98089.34;5096650;28;20046;-82
2023/01/17 03:18:02;;;;;;;0.40;0.40;;;;;;;2.36;84.65;98093.59;5108950;28;20403;-82
2023/01/17 03:20:33;;;;;;;0.43;0.43;;;;;;;2.48;83.86;98103.53;5112746;28;20134;-81
2023/01/17 03:23:03;;;;;;;0.35;0.35;;;;;;;2.40;84.41;98097.78;5109553;29;20070;-82
2023/01/17 03:25:33;;;;;;;0.30;0.30;;;;;;;2.34;85.25;98103.19;5125809;28;20070;-82
2023/01/17 03:28:04;;;;;;;0.68;0.68;;;;;;;2.33;84.77;98104.91;5113624;28;20032;-82
2023/01/17 03:30:34;;;;;;;0.40;0.40;;;;;;;2.36;84.85;98101.38;5114277;28;20035;-81
2023/01/17 03:33:05;;;;;;;0.40;0.40;;;;;;;2.38;85.04;98099.56;5095598;29;20032;-81
2023/01/17 03:35:35;;;;;;;0.52;0.52;;;;;;;2.40;85.02;98096.94;5114514;28;20573;-81
2023/01/17 03:38:06;;;;;;;0.70;0.70;;;;;;;2.31;85.72;98091.22;5124652;28;20027;-81
2023/01/17 03:40:39;;;;;;;0.40;0.40;;;;;;;2.36;86.31;98098.78;5109881;28;20116;-81
2023/01/17 03:43:10;;;;;;;0.50;0.50;;;;;;;2.37;85.62;98100.47;5113358;28;20027;-82
2023/01/17 03:45:41;;;;;;;0.30;0.30;;;;;;;2.37;85.00;98095.28;5126478;28;20066;-81
2023/01/17 03:48:11;;;;;;;0.90;0.90;;;;;;;2.38;84.53;98106.50;5113548;29;20045;-81
2023/01/17 03:50:41;;;;;;;0.93;0.93;;;;;;;2.43;84.23;98102.88;5107258;28;20035;-81
2023/01/17 03:53:12;;;;;;;0.55;0.55;;;;;;;2.28;84.45;98103.38;5130678;28;20419;-82
2023/01/17 03:55:46;;;;;;;0.30;0.30;;;;;;;2.36;83.81;98107.41;5133579;28;20118;-81
2023/01/17 03:58:16;;;;;;;0.70;0.70;;;;;;;2.24;84.43;98117.34;5135396;28;20031;-81
2023/01/17 04:00:47;;;;;;;0.38;0.38;;;;;;;2.21;84.31;98113.13;5113914;28;20079;-80
2023/01/17 04:03:17;;;;;;;0.30;0.30;;;;;;;2.29;84.31;98113.69;5125578;28;20114;-81
2023/01/17 04:05:48;;;;;;;0.50;0.50;;;;;;;2.22;83.72;98125.16;5098948;28;20103;-80
2023/01/17 04:08:18;;;;;;;0.38;0.38;;;;;;;2.25;83.93;98124.22;5103094;29;20079;-81
2023/01/17 04:10:49;;;;;;;7.65;0.85;;;;;;;2.27;83.54;98130.19;5109831;28;20461;-80
2023/01/17 04:13:19;;;;;;;1.00;1.00;;;;;;;2.15;83.59;98129.69;5126511;28;20086;-81
2023/01/17 04:15:50;;;;;;;0.30;0.30;;;;;;;2.11;84.07;98133.28;5111585;28;20035;-80
2023/01/17 04:18:22;;;;;;;0.40;0.40;;;;;;;2.05;84.56;98133.47;5115051;29;20347;-83
2023/01/17 04:20:53;;;;;;;0.30;0.30;;;;;;;2.15;84.67;98129.69;5106969;28;20039;-80
2023/01/17 04:23:23;;;;;;;0.40;0.40;;;;;;;2.08;84.16;98123.03;5107009;29;20032;-83
2023/01/17 04:25:53;;;;;;;0.40;0.40;;;;;;;2.00;84.32;98132.81;5099493;28;20086;-81
2023/01/17 04:28:24;;;;;;;0.30;0.30;;;;;;;1.91;84.96;98121.00;5118941;28;20035;-80
2023/01/17 04:30:59;;;;;;;0.30;0.30;;;;;;;1.88;85.09;98124.56;5100473;28;20035;-81
2023/01/17 04:33:29;;;;;;;1.05;1.05;;;;;;;1.95;84.58;98132.09;5108674;29;21145;-81
2023/01/17 04:36:00;;;;;;;0.40;0.40;;;;;;;1.96;84.46;98131.22;5124836;28;20039;-81
2023/01/17 04:38:30;;;;;;;0.47;0.47;;;;;;;2.05;84.07;98133.47;5089228;29;20548;-81
2023/01/17 04:41:01;;;;;;;0.40;0.40;;;;;;;2.01;84.00;98134.50;5127829;28;20063;-80
2023/01/17 04:43:31;;;;;;;0.43;0.43;;;;;;;2.10;83.84;98141.97;5095664;29;20032;-81
2023/01/17 04:46:03;;;;;;;0.40;0.40;;;;;;;2.15;83.48;98137.47;5110660;28;20494;-81
2023/01/17 04:48:34;;;;;;;2.17;1.15;;;;;;;2.12;83.67;98142.72;5097369;29;20035;-81
2023/01/17 04:51:05;;;;;;;0.35;0.35;;;;;;;2.13;83.22;98152.19;5091203;29;20083;-81
2023/01/17 04:53:35;;;;;;;0.40;0.40;;;;;;;2.17;83.35;98158.94;5104191;29;20036;-80
2023/01/17 04:56:06;;;;;;;1.10;1.10;;;;;;;2.01;83.45;98147.44;5125797;28;20562;-81
2023/01/17 04:58:37;;;;;;;0.40;0.40;;;;;;;2.06;82.97;98147.28;5098306;29;20122;-80
2023/01/17 05:01:08;;;;;;;0.45;0.45;;;;;;;2.09;83.52;98152.34;5108945;28;20505;-80
2023/01/17 05:03:39;;;;;;;0.70;0.70;;;;;;;2.06;82.42;98142.94;5099332;29;20062;-82
2023/01/17 05:06:09;;;;;;;0.47;0.47;;;;;;;2.08;82.23;98148.91;5112319;28;20040;-79
2023/01/17 05:08:40;;;;;;;0.40;0.40;;;;;;;2.06;82.61;98155.88;5108203;29;20062;-81
2023/01/17 05:11:10;;;;;;;0.93;0.93;;;;;;;2.06;82.24;98148.13;5129319;28;20134;-80
2023/01/17 05:13:41;;;;;;;0.68;0.68;;;;;;;2.02;82.29;98151.72;5128798;28;20027;-80
2023/01/17 05:16:11;;;;;;;0.82;0.82;;;;;;;2.03;82.45;98155.97;5100571;29;20062;-81
2023/01/17 05:18:42;;;;;;;0.65;0.65;;;;;;;1.99;82.35;98157.81;5102005;29;20070;-80
2023/01/17 05:21:12;;;;;;;0.65;0.65;;;;;;;2.06;82.29;98158.47;5126037;28;20083;-80
2023/01/17 05:23:42;;;;;;;0.77;0.77;;;;;;;2.05;81.57;98159.34;5116857;28;20130;-80
2023/01/17 05:26:13;;;;;;;2.75;1.88;;;;;;;2.09;81.52;98166.13;5119075;28;20098;-81
2023/01/17 05:28:43;;;;;;;0.68;0.68;;;;;;;1.89;82.17;98165.03;5112922;28;20039;-81
2023/01/17 05:31:14;;;;;;;0.32;0.32;;;;;;;1.92;81.25;98168.44;5104717;28;20035;-80
2023/01/17 05:33:44;;;;;;;0.38;0.38;;;;;;;1.93;80.93;98170.13;5113340;28;20138;-80
2023/01/17 05:36:15;;;;;;;0.30;0.30;;;;;;;1.87;80.76;98166.00;5110246;28;20090;-80
2023/01/17 05:38:45;;;;;;;0.60;0.60;;;;;;;1.85;80.49;98172.94;5111933;28;20027;-80
2023/01/17 05:41:16;;;;;;;0.40;0.40;;;;;;;1.75;81.13;98164.66;5108358;28;20059;-80
2023/01/17 05:43:46;;;;;;;0.57;0.57;;;;;;;1.82;81.62;98166.13;5112808;28;20035;-80
2023/01/17 05:46:17;;;;;;;0.50;0.50;;;;;;;1.85;80.61;98168.63;5126517;28;20047;-81
2023/01/17 05:48:47;;;;;;;0.32;0.32;;;;;;;1.80;80.86;98173.09;5128939;28;20038;-81
2023/01/17 05:51:18;;;;;;;0.60;0.60;;;;;;;1.81;80.65;98172.19;5114621;28;20043;-80
2023/01/17 05:53:48;;;;;;;1.73;1.63;;;;;;;1.87;80.42;98172.00;5123542;28;20039;-80
2023/01/17 05:56:19;;;;;;;5.82;1.98;;;;;;;1.80;80.66;98167.91;5112850;28;20142;-80
2023/01/17 05:58:49;;;;;;;0.40;0.40;;;;;;;1.73;80.34;98169.00;5130429;28;20047;-82
2023/01/17 06:01:20;;;;;;;0.30;0.30;;;;;;;1.68;80.55;98170.91;5124991;28;20046;-82
2023/01/17 06:03:50;;;;;;;2.58;1.40;;;;;;;1.76;80.46;98168.94;5098252;29;20023;-82
2023/01/17 06:06:21;;;;;;;0.40;0.40;;;;;;;1.68;80.76;98170.91;5108107;29;20045;-82
2023/01/17 06:08:51;;;;;;;0.40;0.40;;;;;;;1.65;80.75;98171.00;5110305;28;20035;-80
2023/01/17 06:11:22;;;;;;;0.30;0.30;;;;;;;1.59;80.88;98174.63;5121509;28;20062;-81
2023/01/17 06:13:52;;;;;;;0.30;0.30;;;;;;;1.59;80.85;98178.94;5128656;28;20374;-81
2023/01/17 06:16:22;;;;;;;0.40;0.40;;;;;;;1.60;80.87;98184.06;5123990;28;20228;-80
2023/01/17 06:18:53;;;;;;;0.60;0.60;;;;;;;1.63;80.67;98185.69;5111406;29;20031;-80
2023/01/17 06:21:24;;;;;;;0.30;0.30;;;;;;;1.61;80.39;98184.94;5106775;29;20039;-80
2023/01/17 06:23:54;;;;;;;0.80;0.80;;;;;;;1.60;80.34;98193.56;5115650;29;20189;-80
2023/01/17 06:26:25;;;;;;;0.45;0.45;;;;;;;1.51;80.83;98190.38;5148339;28;20058;-81
2023/01/17 06:28:55;;;;;;;0.80;0.80;;;;;;;1.48;81.31;98189.63;5119370;28;20110;-81
2023/01/17 06:31:25;;;;;;;0.63;0.63;;;;;;;1.45;80.97;98182.78;5111950;29;20107;-80
2023/01/17 06:33:56;;;;;;;0.70;0.70;;;;;;;1.44;80.35;98191.47;5133290;28;20039;-80
2023/01/17 06:36:26;;;;;;;0.40;0.40;;;;;;;1.42;80.86;98194.06;5106157;29;20043;-80
2023/01/17 06:38:57;;;;;;;0.30;0.30;;;;;;;1.44;80.90;98199.22;5110764;29;20821;-81
2023/01/17 06:41:27;;;;;;;1.58;1.48;;;;;;;1.47;81.24;98199.09;5136635;28;20039;-81
2023/01/17 06:43:58;;;;;;;0.47;0.47;;;;;;;1.47;80.61;98206.84;5120938;28;20058;-81
2023/01/17 06:46:28;;;;;;;0.50;0.50;;;;;;;1.54;81.03;98204.94;5115812;28;20062;-79
2023/01/17 06:48:59;;;;;;;0.50;0.50;;;;;;;1.51;80.93;98203.31;5121384;29;20710;-80
2023/01/17 06:51:29;;;;;;;1.23;1.23;;;;;;;1.55;80.53;98204.88;5122332;28;20063;-80
2023/01/17 06:54:00;;;;;;;0.93;0.93;;;;;;;1.57;80.68;98199.69;5139723;28;20043;-80
2023/01/17 06:56:31;;;;;;;0.43;0.43;;;;;;;1.54;80.21;98208.34;5160053;28;20019;-80
2023/01/17 06:59:02;;;;;;;0.55;0.55;;;;;;;1.59;79.57;98207.38;5156114;28;20047;-80
2023/01/17 07:01:33;;;;;;;0.77;0.77;;;;;;;1.69;79.63;98213.97;5119412;28;20039;-80
2023/01/17 07:04:03;;;;;;;0.52;0.52;;;;;;;1.86;79.84;98214.25;5131025;28;20024;-80
2023/01/17 07:06:35;;;;;;;0.40;0.40;;;;;;;1.81;79.77;98213.56;5123200;29;20861;-80
2023/01/17 07:09:05;;;;;;;1.15;1.05;;;;;;;1.77;79.71;98206.81;5113965;29;20028;-80
2023/01/17 07:11:36;;;;;;;5.78;1.50;;;;;;;1.76;79.65;98209.44;5119741;28;20039;-80
2023/01/17 07:14:11;;;;;;;0.40;0.40;;;;;;;1.61;79.92;98206.44;5117854;28;20110;-80
2023/01/17 07:16:44;;;;;;;1.00;1.00;;;;;;;1.64;79.64;98210.66;5120950;28;20036;-80
2023/01/17 07:19:15;;;;;;;0.93;0.93;;;;;;;1.58;79.43;98214.28;5116628;29;20035;-80
2023/01/17 07:21:46;;;;;;;23.58;2.17;;;;;;;1.64;79.66;98213.25;5113513;28;20155;-80
2023/01/17 07:24:16;;;;;;;0.73;0.73;;;;;;;1.57;79.51;98208.28;5118211;29;20075;-80
2023/01/17 07:26:50;;;;;;;;;;;;;;;1.57;79.98;98216.03;5127562;28;20738;-81
2023/01/17 07:29:20;;;;;;;0.30;0.30;;;;;;;1.62;79.26;98210.72;5128578;28;19929;-80
2023/01/17 07:31:51;;;;;;;0.30;0.30;;;;;;;1.59;79.51;98217.72;5132719;28;20031;-81
2023/01/17 07:34:21;;;;;;;0.45;0.45;;;;;;;1.55;79.51;98212.63;5142222;28;20114;-81
2023/01/17 07:36:53;;;;;;;0.30;0.30;;;;;;;1.57;79.49;98216.03;5133457;28;20043;-81
2023/01/17 07:39:24;;;;;;;0.40;0.40;;;;;;;1.53;79.61;98219.59;5123097;29;20043;-81
2023/01/17 07:41:54;;;;;;;0.73;0.73;;;;;;;1.45;79.35;98207.81;5101563;28;20066;-80
2023/01/17 07:44:24;;;;;;;0.30;0.30;;;;;;;1.49;79.43;98217.16;5121143;28;20738;-81
2023/01/17 07:46:55;;;;;;;0.70;0.70;;;;;;;1.55;78.70;98222.97;5121465;28;20047;-80
2023/01/17 07:49:25;;;;;;;0.30;0.30;;;;;;;1.52;79.02;98223.09;5137217;28;20162;-80
2023/01/17 07:51:56;;;;;;;0.63;0.63;;;;;;;1.55;78.79;98220.38;5137909;28;20035;-80
2023/01/17 07:54:26;;;;;;;0.80;0.80;;;;;;;1.57;79.35;98222.94;5126526;29;20031;-80
2023/01/17 07:56:57;;;;;;;0.47;0.47;;;;;;;1.73;79.04;98223.31;5145021;28;20035;-80
2023/01/17 07:59:28;;;;;;;0.43;0.43;;;;;;;1.82;78.82;98225.59;5126121;28;20129;-81
2023/01/17 08:01:58;;;;;;;0.40;0.40;;;;;;;1.87;78.83;98221.13;5125260;29;20074;-80
2023/01/17 08:04:33;;;;;;;0.93;0.93;;;;;;;1.87;78.61;98222.88;5141299;28;20050;-80
2023/01/17 08:07:03;;;;;;;0.40;0.40;;;;;;;1.97;78.79;98215.66;5124279;28;20382;-80
2023/01/17 08:09:34;;;;;;;0.30;0.30;;;;;;;2.11;79.07;98216.06;5125440;29;20117;-80
2023/01/17 08:12:05;;;;;;;0.40;0.40;;;;;;;2.13;78.53;98213.44;5140005;28;20259;-80
2023/01/17 08:14:35;;;;;;;0.30;0.30;;;;;;;2.25;78.61;98212.19;5115668;29;20152;-80
2023/01/17 08:17:10;;;;;;;0.30;0.30;;;;;;;2.24;78.80;98211.31;5146992;28;20296;-80
2023/01/17 08:19:40;;;;;;;0.40;0.40;;;;;;;2.29;78.72;98219.78;5114515;29;20141;-80
2023/01/17 08:22:11;;;;;;;0.65;0.65;;;;;;;2.32;78.76;98226.59;5113834;29;20553;-82
2023/01/17 08:24:41;;;;;;;0.70;0.70;;;;;;;2.33;78.53;98220.53;5101370;29;20032;-79
2023/01/17 08:27:12;;;;;;;1.27;1.25;;;;;;;2.35;78.88;98231.69;5109564;28;20067;-80
2023/01/17 08:29:45;;;;;;;1.08;1.08;;;;;;;2.42;78.24;98228.00;5117733;28;20141;-80
2023/01/17 08:32:16;;;;;;;0.40;0.40;;;;;;;2.38;78.99;98231.56;5104999;28;20099;-80
2023/01/17 08:34:46;;;;;;;0.73;0.73;;;;;;;2.41;78.31;98228.88;5103176;29;20130;-80
2023/01/17 08:37:17;;;;;;;0.30;0.30;;;;;;;2.45;78.60;98234.78;5108561;28;20058;-81
2023/01/17 08:39:48;;;;;;;1.17;1.17;;;;;;;2.45;78.02;98227.88;5107238;29;20019;-80
2023/01/17 08:42:18;;;;;;;2.33;1.27;;;;;;;2.49;78.35;98237.22;5140116;28;20061;-80
2023/01/17 08:44:49;;;;;;;0.32;0.32;;;;;;;2.48;78.38;98235.53;5152406;28;20016;-80
2023/01/17 08:47:19;;;;;;;0.30;0.30;;;;;;;2.54;77.98;98238.81;5118410;29;20122;-81
2023/01/17 08:49:51;;;;;;;1.42;1.35;;;;;;;2.57;78.24;98233.53;5121187;29;20038;-81
2023/01/17 08:52:21;;;;;;;1.02;1.02;;;;;;;2.56;78.39;98237.00;5127709;28;20039;-80
2023/01/17 08:54:52;;;;;;;0.77;0.77;;;;;;;2.61;77.78;98242.88;5140525;28;20638;-80
2023/01/17 08:57:23;;;;;;;4.93;3.85;;;;;;;2.57;77.69;98239.53;5124227;28;20039;-80
2023/01/17 08:59:53;;;;;;;0.70;0.70;;;;;;;2.60;77.64;98238.63;5119514;29;20035;-80
2023/01/17 09:02:24;;;;;;;0.70;0.70;;;;;;;2.57;77.50;98229.19;5126290;28;20051;-80
2023/01/17 09:04:54;;;;;;;0.88;0.88;;;;;;;2.33;77.05;98236.06;5119319;28;20042;-80
2023/01/17 09:07:25;;;;;;;0.30;0.30;;;;;;;2.34;77.24;98233.41;5120736;28;20043;-81
2023/01/17 09:09:56;;;;;;;0.47;0.47;;;;;;;2.51;77.37;98235.44;5106764;29;20027;-81
2023/01/17 09:12:31;;;;;;;0.63;0.63;;;;;;;2.51;76.96;98243.22;5121119;28;20667;-81
2023/01/17 09:15:03;;;;;;;0.30;0.30;;;;;;;2.45;76.62;98240.81;5107987;29;20024;-81
2023/01/17 09:17:34;;;;;;;0.40;0.40;;;;;;;2.14;77.76;98234.06;5146230;28;20019;-81
2023/01/17 09:20:05;;;;;;;0.63;0.63;;;;;;;2.35;77.26;98234.28;5130853;29;20063;-81
2023/01/17 09:22:37;;;;;;;1.10;1.10;;;;;;;2.28;77.54;98240.53;5136309;28;20035;-81
2023/01/17 09:25:08;;;;;;;0.40;0.40;;;;;;;2.14;76.92;98236.66;5141877;28;20093;-82
2023/01/17 09:27:38;;;;;;;0.50;0.50;;;;;;;2.11;77.02;98243.66;5134419;28;20039;-82
2023/01/17 09:30:09;;;;;;;0.30;0.30;;;;;;;2.15;77.20;98248.69;5111890;29;20038;-82
2023/01/17 09:32:40;;;;;;;0.73;0.73;;;;;;;2.14;76.98;98247.00;5119267;28;20051;-81
2023/01/17 09:35:12;;;;;;;0.43;0.43;;;;;;;2.07;77.02;98250.69;5110520;29;20113;-83
2023/01/17 09:37:42;;;;;;;0.32;0.32;;;;;;;1.98;75.99;98256.16;5118001;28;20616;-81
2023/01/17 09:40:19;;;;;;;3.50;2.28;;;;;;;2.15;76.21;98243.53;5130467;28;20047;-81
2023/01/17 09:43:00;;;;;;;1.05;1.02;;;;;;;2.09;76.35;98250.63;5131346;28;20259;-81
2023/01/17 09:45:32;;;;;;;0.30;0.30;;;;;;;1.97;75.90;98257.03;5099167;28;20691;-81
2023/01/17 09:48:07;;;;;;;0.30;0.30;;;;;;;2.01;76.10;98261.25;5130004;28;20038;-82
2023/01/17 09:50:56;;;;;;;0.63;0.63;;;;;;;2.05;76.69;98262.81;5107770;28;20039;-81
2023/01/17 09:53:33;;;;;;;0.57;0.57;;;;;;;2.25;77.12;98256.16;5127609;28;20038;-82
2023/01/17 09:56:11;;;;;;;0.30;0.30;;;;;;;2.17;77.11;98256.41;5129586;28;20032;-83
2023/01/17 09:58:50;;;;;;;0.73;0.73;;;;;;;2.03;76.32;98260.28;5100953;29;20031;-80
2023/01/17 10:01:47;;;;;;;0.70;0.70;;;;;;;2.13;76.50;98260.84;5109108;29;20649;-80
2023/01/17 10:04:55;;;;;;;0.32;0.32;;;;;;;2.13;76.63;98266.00;5130996;28;20076;-80
2023/01/17 10:07:53;;;;;;;17.95;2.47;;;;;;;2.13;76.32;98278.09;5117096;28;20625;-81
2023/01/17 10:10:41;;;;;;;0.30;0.30;;;;;;;2.17;75.94;98271.94;5108250;28;20031;-81
2023/01/17 10:13:45;;;;;;;1.25;0.93;;;;;;;2.05;76.57;98275.75;5128067;28;20051;-82
2023/01/17 10:16:37;;;;;;;3.97;3.33;;;;;;;2.19;76.55;98275.31;5110142;28;20114;-81
2023/01/17 10:19:26;;;;;;;0.30;0.30;;;;;;;2.17;76.39;98272.78;5128825;28;20032;-81
2023/01/17 10:22:29;;;;;;;1.35;1.30;;;;;;;2.02;76.09;98274.13;5115176;28;20059;-82
2023/01/17 10:25:39;;;;;;;0.43;0.43;;;;;;;2.15;76.92;98274.56;5112336;28;20092;-82
2023/01/17 10:28:20;;;;;;;0.45;0.45;;;;;;;2.24;76.32;98275.16;5102773;29;20051;-80
2023/01/17 10:30:59;;;;;;;0.40;0.40;;;;;;;2.18;76.74;98276.22;5118135;28;20035;-80
2023/01/17 10:33:40;;;;;;;0.30;0.30;;;;;;;2.20;76.17;98271.84;5103980;29;20145;-81
2023/01/17 10:36:17;;;;;;;0.30;0.30;;;;;;;2.18;76.37;98276.22;5114027;29;20162;-81
2023/01/17 10:38:52;;;;;;;0.40;0.40;;;;;;;2.36;76.44;98267.00;5117261;28;20043;-81
2023/01/17 10:41:31;;;;;;;1.08;1.05;;;;;;;2.34;76.20;98263.63;5118373;29;20055;-81
2023/01/17 10:44:19;;;;;;;0.40;0.40;;;;;;;2.36;75.89;98261.81;5101299;28;20154;-82
2023/01/17 10:47:05;;;;;;;0.40;0.40;;;;;;;2.38;75.03;98262.63;5125645;28;20040;-81
2023/01/17 10:49:40;;;;;;;0.50;0.50;;;;;;;2.43;75.97;98263.34;5132077;28;20030;-82
2023/01/17 10:52:30;;;;;;;0.30;0.30;;;;;;;2.39;75.88;98266.91;5109456;28;20043;-82
2023/01/17 10:55:04;;;;;;;0.30;0.30;;;;;;;2.34;75.61;98266.22;5111443;28;20024;-81
2023/01/17 10:57:43;;;;;;;0.30;0.30;;;;;;;2.38;76.20;98260.03;5123245;28;20169;-80
2023/01/17 11:00:22;;;;;;;0.60;0.60;;;;;;;2.40;76.30;98253.06;5110629;28;20054;-82
2023/01/17 11:02:53;;;;;;;0.30;0.30;;;;;;;2.45;76.61;98261.50;5106928;28;20054;-82
2023/01/17 11:05:31;;;;;;;0.70;0.70;;;;;;;2.41;75.48;98249.59;5110373;28;20024;-82
2023/01/17 11:08:04;;;;;;;0.60;0.60;;;;;;;2.48;75.65;98251.06;5126782;28;20038;-81
2023/01/17 11:10:41;;;;;;;0.30;0.30;;;;;;;2.48;75.91;98245.88;5111837;28;20031;-82
2023/01/17 11:13:27;;;;;;;1.13;1.13;;;;;;;2.54;74.99;98250.03;5138199;28;20149;-81
2023/01/17 11:16:00;;;;;;;0.40;0.40;;;;;;;2.63;75.83;98243.66;5109569;29;20241;-82
2023/01/17 11:18:37;;;;;;;0.40;0.40;;;;;;;2.69;76.17;98243.44;5123308;28;20648;-82
2023/01/17 11:21:22;;;;;;;1.52;1.42;;;;;;;2.63;74.98;98241.06;5097038;28;20523;-81
2023/01/17 11:23:56;;;;;;;0.40;0.40;;;;;;;2.65;75.39;98236.69;5127282;28;20675;-81
2023/01/17 11:26:33;;;;;;;0.32;0.32;;;;;;;2.61;74.15;98242.88;5102179;29;20538;-81
2023/01/17 11:29:22;;;;;;;0.60;0.60;;;;;;;2.72;74.78;98233.00;5113358;28;20273;-80
2023/01/17 11:31:55;;;;;;;0.90;0.90;;;;;;;2.75;74.81;98232.03;5107224;29;20039;-81
2023/01/17 11:34:30;;;;;;;0.30;0.30;;;;;;;2.79;75.55;98231.03;5095079;29;20121;-81
2023/01/17 11:37:16;;;;;;;0.40;0.40;;;;;;;2.76;74.08;98229.41;5105519;29;20759;-80
2023/01/17 11:39:47;;;;;;;1.15;1.05;;;;;;;2.81;74.71;98229.25;5119041;28;20027;-80
2023/01/17 11:42:37;;;;;;;0.30;0.30;;;;;;;2.87;75.34;98223.00;5107806;28;20043;-81
2023/01/17 11:45:20;;;;;;;0.30;0.30;;;;;;;2.90;75.86;98234.06;5115649;28;20749;-80
2023/01/17 11:48:11;;;;;;;0.40;0.40;;;;;;;2.98;75.18;98229.47;5099555;29;20814;-81
2023/01/17 11:50:58;;;;;;;0.30;0.30;;;;;;;3.10;74.06;98224.75;5095281;28;20045;-81
2023/01/17 11:53:33;;;;;;;0.30;0.30;;;;;;;3.18;73.78;98225.31;5110369;29;20039;-80
2023/01/17 11:56:10;;;;;;;1.42;1.42;;;;;;;3.22;73.21;98220.88;5118831;28;20084;-81
2023/01/17 11:58:41;;;;;;;0.30;0.30;;;;;;;3.25;71.76;98220.75;5115702;28;20043;-81
2023/01/17 12:01:32;;;;;;;0.30;0.30;;;;;;;3.26;71.77;98217.28;5105285;28;20070;-80
2023/01/17 12:04:22;;;;;;;0.38;0.38;;;;;;;3.36;71.72;98213.41;5115065;28;20043;-80
2023/01/17 12:07:01;;;;;;;0.25;0.25;;;;;;;3.39;73.82;98207.28;5131311;28;20039;-81
2023/01/17 12:10:01;;;;;;;1.45;1.38;;;;;;;3.48;73.39;98212.09;5130284;28;20122;-80
2023/01/17 12:15:50;;;;;;;0.50;0.45;;;;;;;3.63;72.57;98215.84;5134693;28;20035;-80
2023/01/17 12:18:34;;;;;;;0.77;0.77;;;;;;;3.76;71.28;98217.03;5150447;28;20038;-79
2023/01/17 12:21:12;;;;;;;0.30;0.30;;;;;;;3.78;71.71;98209.22;5122042;28;20657;-80
2023/01/17 12:23:56;;;;;;;0.50;0.50;;;;;;;3.81;70.91;98208.25;5132735;28;20087;-80
2023/01/17 12:26:48;;;;;;;0.30;0.30;;;;;;;3.87;69.39;98208.00;5107485;28;20049;-80
2023/01/17 12:29:40;;;;;;;0.77;0.77;;;;;;;3.91;69.55;98199.19;5109373;29;20780;-81
2023/01/17 12:32:55;;;;;;;0.50;0.50;;;;;;;4.03;68.55;98203.88;5119904;28;20039;-83
2023/01/17 12:35:37;;;;;;;0.30;0.30;;;;;;;4.04;70.24;98190.00;5136672;28;20117;-81
2023/01/17 12:38:09;;;;;;;0.40;0.40;;;;;;;4.14;68.61;98192.22;5107390;28;20085;-81
2023/01/17 12:40:59;;;;;;;0.35;0.35;;;;;;;4.16;68.44;98187.81;5121255;28;20477;-82
2023/01/17 12:43:36;;;;;;;0.88;0.88;;;;;;;4.13;70.21;98188.81;5120997;28;20701;-81
2023/01/17 12:46:22;;;;;;;4.75;1.75;;;;;;;4.18;70.67;98189.44;5116851;28;20776;-81
2023/01/17 12:49:02;;;;;;;0.40;0.40;;;;;;;4.28;70.95;98176.91;5119409;28;20031;-80
2023/01/17 12:51:39;;;;;;;0.75;0.75;;;;;;;4.36;70.11;98179.19;5120250;29;20121;-79
2023/01/17 12:54:41;;;;;;;0.30;0.30;;;;;;;4.34;68.33;98176.66;5120584;28;20035;-80
2023/01/17 12:57:23;;;;;;;0.35;0.35;;;;;;;4.40;67.79;98179.00;5100907;28;20051;-80
2023/01/17 13:00:03;;;;;;;0.30;0.30;;;;;;;4.48;68.08;98181.25;5105888;29;20031;-80
2023/01/17 13:03:01;;;;;;;0.30;0.30;;;;;;;4.40;70.16;98179.00;5112251;29;20043;-81
2023/01/17 13:05:40;;;;;;;0.30;0.30;;;;;;;4.40;68.25;98186.78;5107795;28;20059;-80
2023/01/17 13:08:20;;;;;;;0.60;0.60;;;;;;;4.34;67.18;98188.78;5135272;28;20094;-80
2023/01/17 13:10:50;;;;;;;0.40;0.40;;;;;;;4.43;68.63;98190.13;5112181;28;20077;-80
2023/01/17 13:13:27;;;;;;;3.30;1.95;;;;;;;4.50;67.96;98191.59;5116606;28;20608;-80
2023/01/17 13:16:12;;;;;;;0.30;0.30;;;;;;;4.57;65.90;98188.66;5124308;28;20362;-81
2023/01/17 13:18:47;;;;;;;1.10;0.88;;;;;;;4.47;68.18;98186.53;5125802;28;20442;-81
2023/01/17 13:21:33;;;;;;;0.95;0.95;;;;;;;4.56;67.53;98186.97;5089418;29;20047;-81
2023/01/17 13:24:12;;;;;;;0.50;0.50;;;;;;;4.53;66.80;98186.25;5109212;28;20120;-81
2023/01/17 13:26:49;;;;;;;1.15;1.15;;;;;;;4.67;68.04;98186.50;5127991;28;20039;-81
2023/01/17 13:29:20;;;;;;;3.47;1.02;;;;;;;4.67;69.53;98188.25;5117241;28;20150;-80
2023/01/17 13:32:12;;;;;;;0.55;0.55;;;;;;;4.70;67.40;98185.53;5125112;28;20039;-80
2023/01/17 13:34:48;;;;;;;0.30;0.30;;;;;;;4.57;65.45;98193.00;5100736;29;20050;-81
2023/01/17 13:37:48;;;;;;;0.65;0.65;;;;;;;4.54;62.81;98187.94;5098389;29;20039;-81
2023/01/17 13:40:33;;;;;;;0.40;0.40;;;;;;;4.54;65.06;98194.00;5094536;29;20890;-81
2023/01/17 13:43:11;;;;;;;0.40;0.40;;;;;;;4.59;67.57;98196.38;5129845;28;20503;-81
2023/01/17 13:45:54;;;;;;;2.55;1.45;;;;;;;4.63;67.08;98194.50;5117142;28;20039;-80
2023/01/17 13:48:25;;;;;;;;;;;;;;;4.60;66.79;98192.03;5113096;28;20023;-80